Marina Bay, Massachusetts
Current Conditions -  °F | °C
As of 11:54 PM on Friday 24 Oct 2014 (Local Time) from KBOS Reporting Station
Few Clouds Few Clouds  
Wind Chill: 42°   Ceiling: Unl
Heat Index: 47°   Visibility: 10mi
Dew Point: 41°   Wind: 10mph
Humidity: 80%   Direction: 300°WNW
Pressure: 29.74"   Gusts: NA
Location:  42.2866°N, 71.0248°W
Report Text: KBOS 250354Z 30009KT 10SM FEW043 08/05 A2974 RMK AO2 SLP071 T00830050
Loading
Personal Weather Stations






























Interactive Weather Map
Tropical Storm Tracking
New forecast layout! Learn more

10-Day Weather Forecast

Advertisements
Track Severe Weather on mobile